Time;durP1;ratioP1;P1;durP2;ratioP2;P2;SDS_P1;SDS_P2;PMS_P1;PMS_P2;Temp;Humidity;BMP_temperature;BMP_pressure;BME280_temperature;BME280_humidity;BME280_pressure;Samples;Min_cycle;Max_cycle;Signal;HPM_P1;HPM_P2
2022/08/14 00:00:33;;;;;;;8.32;5.13;;;;;;;23.79;56.43;100384.66;2091889;28;20056;-74
2022/08/14 00:01:55;;;;;;;9.27;6.15;;;;;;;23.78;56.72;100382.91;2108450;28;20113;-74
2022/08/14 00:03:22;;;;;;;8.00;5.40;;;;;;;23.80;57.46;100381.91;2103835;28;20040;-74
2022/08/14 00:04:45;;;;;;;8.95;5.65;;;;;;;23.83;58.19;100388.97;2105564;27;20071;-74
2022/08/14 00:06:09;;;;;;;8.93;5.60;;;;;;;23.86;58.26;100382.56;2091664;28;20067;-74
2022/08/14 00:07:30;;;;;;;8.75;5.78;;;;;;;23.88;58.65;100378.00;2107841;28;20095;-74
2022/08/14 00:08:52;;;;;;;9.30;5.80;;;;;;;23.88;58.83;100386.97;2096963;28;20048;-74
2022/08/14 00:10:18;;;;;;;8.45;5.53;;;;;;;23.88;58.07;100380.69;2102693;28;20056;-75
2022/08/14 00:11:40;;;;;;;7.43;5.43;;;;;;;23.87;58.17;100377.13;2103129;28;20074;-74
2022/08/14 00:13:03;;;;;;;6.45;5.05;;;;;;;23.87;58.36;100378.94;2104951;28;20047;-74
2022/08/14 00:14:28;;;;;;;9.73;6.35;;;;;;;23.85;58.20;100384.38;2102887;28;20441;-75
2022/08/14 00:15:51;;;;;;;11.38;5.70;;;;;;;23.83;58.45;100381.75;2102480;28;20147;-74
2022/08/14 00:17:13;;;;;;;8.18;5.80;;;;;;;23.84;58.33;100388.03;2094545;28;20052;-74
2022/08/14 00:18:35;;;;;;;8.30;5.38;;;;;;;23.83;58.57;100387.16;2096808;28;20132;-74
2022/08/14 00:19:58;;;;;;;10.90;5.32;;;;;;;23.82;58.21;100392.63;2101054;28;20048;-74
2022/08/14 00:21:21;;;;;;;9.50;5.22;;;;;;;23.79;58.13;100381.97;2101949;28;20062;-74
2022/08/14 00:22:42;;;;;;;9.32;5.65;;;;;;;23.74;58.09;100387.59;2094287;28;20554;-74
2022/08/14 00:24:05;;;;;;;7.90;5.15;;;;;;;23.74;58.32;100384.00;2094115;28;20045;-74
2022/08/14 00:25:27;;;;;;;10.38;5.80;;;;;;;23.74;58.32;100378.63;2116688;27;20100;-74
2022/08/14 00:26:50;;;;;;;9.38;5.55;;;;;;;23.71;58.49;100386.81;2109560;28;20093;-74
2022/08/14 00:28:13;;;;;;;10.77;5.82;;;;;;;23.70;58.59;100382.38;2106559;28;20714;-74
2022/08/14 00:29:35;;;;;;;8.90;5.85;;;;;;;23.71;58.66;100386.81;2111073;28;20054;-75
2022/08/14 00:30:58;;;;;;;8.18;5.45;;;;;;;23.71;58.66;100376.03;2096828;28;20186;-75
2022/08/14 00:32:20;;;;;;;7.50;4.97;;;;;;;23.70;58.61;100371.59;2097671;28;20044;-74
2022/08/14 00:33:43;;;;;;;10.27;5.20;;;;;;;23.70;58.72;100375.16;2102672;28;20040;-74
2022/08/14 00:35:08;;;;;;;7.97;5.70;;;;;;;23.67;58.60;100369.91;2101842;28;20059;-74
2022/08/14 00:36:31;;;;;;;7.63;5.68;;;;;;;23.65;59.18;100365.53;2102154;28;20127;-74
2022/08/14 00:37:52;;;;;;;10.90;5.68;;;;;;;23.65;58.87;100374.50;2102066;28;20131;-74
2022/08/14 00:39:15;;;;;;;9.00;5.78;;;;;;;23.66;59.04;100361.91;2093472;28;20055;-75
2022/08/14 00:40:37;;;;;;;8.18;5.60;;;;;;;23.57;59.03;100368.56;2094363;28;20135;-74
2022/08/14 00:42:00;;;;;;;9.32;5.30;;;;;;;23.45;59.25;100369.94;2100046;28;20143;-74
2022/08/14 00:43:22;;;;;;;10.32;5.65;;;;;;;23.37;59.44;100360.44;2104277;28;20768;-74
2022/08/14 00:44:43;;;;;;;8.73;5.55;;;;;;;23.24;59.83;100370.00;2108811;28;20475;-74
2022/08/14 00:46:08;;;;;;;8.57;5.55;;;;;;;23.10;60.15;100369.72;2095115;28;20157;-74
2022/08/14 00:47:31;;;;;;;11.13;5.43;;;;;;;23.05;60.42;100369.91;2095121;28;20075;-74
2022/08/14 00:48:53;;;;;;;7.47;5.63;;;;;;;23.08;60.41;100366.22;2116862;27;20050;-74
2022/08/14 00:50:18;;;;;;;9.38;6.10;;;;;;;23.13;60.46;100372.28;2099060;28;20049;-74
2022/08/14 00:51:42;;;;;;;8.50;5.70;;;;;;;23.20;60.32;100366.56;2091524;28;20052;-74
2022/08/14 00:53:08;;;;;;;8.65;6.18;;;;;;;23.28;60.15;100371.63;2099573;28;20511;-74
2022/08/14 00:54:30;;;;;;;9.43;5.80;;;;;;;23.31;59.97;100372.38;2101677;28;20071;-74
2022/08/14 00:55:56;;;;;;;10.73;6.03;;;;;;;23.36;59.85;100364.09;2102595;28;20047;-74
2022/08/14 00:57:19;;;;;;;9.25;5.68;;;;;;;23.38;59.91;100362.19;2111043;28;20100;-74
2022/08/14 00:58:41;;;;;;;9.30;5.70;;;;;;;23.34;60.00;100366.84;2097173;28;20082;-74
2022/08/14 01:00:06;;;;;;;7.97;5.40;;;;;;;23.33;59.95;100370.50;2086074;28;20045;-74
2022/08/14 01:01:28;;;;;;;9.27;5.90;;;;;;;23.34;59.77;100374.94;2108507;27;20047;-74
2022/08/14 01:02:52;;;;;;;7.75;5.63;;;;;;;23.37;59.76;100371.22;2104981;28;20040;-74
2022/08/14 01:04:16;;;;;;;11.07;5.63;;;;;;;23.38;59.85;100378.34;2103303;28;20114;-74
2022/08/14 01:05:39;;;;;;;7.63;5.10;;;;;;;23.38;59.98;100378.34;2096153;28;20075;-74
2022/08/14 01:07:02;;;;;;;10.68;6.22;;;;;;;23.38;60.23;100375.66;2099226;28;20032;-74
2022/08/14 01:08:27;;;;;;;8.65;5.93;;;;;;;23.42;60.36;100374.63;2102332;28;20059;-74
2022/08/14 01:09:50;;;;;;;9.43;5.65;;;;;;;23.41;60.31;100372.84;2102991;28;20073;-74
2022/08/14 01:11:14;;;;;;;8.07;5.47;;;;;;;23.38;60.30;100370.28;2100940;28;20117;-74
2022/08/14 01:12:40;;;;;;;10.13;5.88;;;;;;;23.36;60.29;100364.09;2101670;28;20399;-74
2022/08/14 01:14:03;;;;;;;9.77;6.00;;;;;;;23.34;60.26;100365.97;2104485;28;20040;-74
2022/08/14 01:15:24;;;;;;;9.20;5.68;;;;;;;23.29;60.22;100370.69;2097480;28;20055;-74
2022/08/14 01:16:47;;;;;;;7.95;5.65;;;;;;;23.28;60.45;100366.25;2091225;28;20044;-74
2022/08/14 01:21:34;;;;;;;8.38;5.90;;;;;;;23.26;60.49;100362.72;2104682;28;20056;-74
2022/08/14 01:22:55;;;;;;;10.20;5.97;;;;;;;23.27;60.53;100362.66;2096375;28;20040;-74
2022/08/14 01:24:20;;;;;;;8.52;5.63;;;;;;;23.26;60.15;100366.31;2103035;28;20040;-74
2022/08/14 01:25:41;;;;;;;9.65;6.70;;;;;;;23.25;60.20;100363.66;2096104;28;20077;-74
2022/08/14 01:27:04;;;;;;;9.40;6.10;;;;;;;23.23;60.20;100363.75;2106200;28;20048;-74
2022/08/14 01:28:26;;;;;;;9.10;5.93;;;;;;;23.23;60.16;100365.56;2104792;28;20492;-74
2022/08/14 01:29:50;;;;;;;9.20;6.10;;;;;;;23.22;60.44;100361.13;2101364;28;20059;-74
2022/08/14 01:31:14;;;;;;;7.78;5.80;;;;;;;23.23;60.34;100369.16;2102347;28;20042;-74
2022/08/14 01:32:37;;;;;;;8.13;5.70;;;;;;;23.23;60.51;100366.44;2102213;28;20067;-74
2022/08/14 01:34:02;;;;;;;10.55;5.90;;;;;;;23.26;60.59;100365.44;2101445;28;20630;-74
2022/08/14 01:35:27;;;;;;;11.32;6.05;;;;;;;23.26;60.75;100373.50;2105995;28;20047;-74
2022/08/14 01:36:51;;;;;;;13.23;6.80;;;;;;;23.28;60.74;100368.94;2116429;27;20047;-74
2022/08/14 01:38:14;;;;;;;10.40;5.65;;;;;;;23.25;60.95;100372.63;2106243;28;20373;-74
2022/08/14 01:39:36;;;;;;;10.50;5.82;;;;;;;23.24;60.76;100376.25;2103700;28;20102;-74
2022/08/14 01:40:59;;;;;;;9.10;6.00;;;;;;;23.25;60.91;100366.34;2087489;28;20053;-74
2022/08/14 01:42:22;;;;;;;9.88;6.28;;;;;;;23.23;60.88;100366.44;2099689;28;20101;-74
2022/08/14 01:43:47;;;;;;;7.97;5.70;;;;;;;23.22;60.80;100367.38;2101045;28;20048;-74
2022/08/14 01:45:12;;;;;;;11.38;6.20;;;;;;;23.21;60.58;100364.75;2107522;28;20044;-74
2022/08/14 01:46:37;;;;;;;10.15;5.93;;;;;;;23.19;61.02;100372.88;2111539;28;20130;-74
2022/08/14 01:47:58;;;;;;;8.20;5.72;;;;;;;23.19;61.19;100366.63;2095570;28;20028;-74
2022/08/14 01:49:23;;;;;;;9.52;5.75;;;;;;;23.18;61.28;100367.56;2093955;28;20094;-74
2022/08/14 01:50:44;;;;;;;10.40;5.82;;;;;;;23.18;61.45;100365.75;2099906;28;20035;-74
2022/08/14 01:52:09;;;;;;;9.07;6.25;;;;;;;23.19;61.67;100364.81;2102098;28;20144;-74
2022/08/14 01:53:31;;;;;;;11.80;6.63;;;;;;;23.18;61.79;100365.75;2090153;28;20074;-74
2022/08/14 01:54:54;;;;;;;8.65;5.72;;;;;;;23.19;61.88;100359.44;2106903;28;20126;-74
2022/08/14 01:56:18;;;;;;;10.07;6.00;;;;;;;23.20;62.16;100357.59;2104889;28;20056;-74
2022/08/14 01:57:43;;;;;;;8.50;5.60;;;;;;;23.19;62.26;100362.13;2101152;28;20072;-74
2022/08/14 01:59:07;;;;;;;11.48;5.80;;;;;;;23.15;62.28;100365.00;2115777;28;20035;-74
2022/08/14 02:00:29;;;;;;;10.18;6.30;;;;;;;23.11;62.45;100366.06;2106300;28;20089;-74
2022/08/14 02:01:53;;;;;;;11.75;6.38;;;;;;;23.10;62.44;100361.66;2102170;28;20040;-74
2022/08/14 02:03:15;;;;;;;9.40;5.80;;;;;;;23.10;62.34;100359.84;2093044;28;20048;-75
2022/08/14 02:04:37;;;;;;;8.77;6.28;;;;;;;23.10;62.36;100364.34;2091242;28;20044;-74
2022/08/14 02:06:00;;;;;;;9.10;5.88;;;;;;;23.03;62.34;100364.59;2101733;28;20044;-74
2022/08/14 02:07:24;;;;;;;9.30;5.95;;;;;;;22.97;62.48;100367.53;2117868;27;20038;-74
2022/08/14 02:08:45;;;;;;;9.23;5.57;;;;;;;22.94;62.60;100364.97;2098887;28;20053;-74
2022/08/14 02:10:09;;;;;;;10.27;5.80;;;;;;;22.95;62.65;100364.03;2106125;28;20038;-73
2022/08/14 02:11:33;;;;;;;9.68;6.38;;;;;;;22.98;62.46;100369.28;2109409;28;20047;-74
2022/08/14 02:12:55;;;;;;;9.60;6.40;;;;;;;23.02;62.44;100364.66;2101078;28;20059;-74
2022/08/14 02:14:18;;;;;;;12.88;6.07;;;;;;;23.03;62.45;100367.28;2118799;28;20530;-74
2022/08/14 02:15:42;;;;;;;10.15;6.50;;;;;;;23.04;62.40;100358.25;2105019;28;20134;-75
2022/08/14 02:17:08;;;;;;;9.93;6.20;;;;;;;23.03;62.54;100367.28;2098972;28;20048;-74
2022/08/14 02:18:29;;;;;;;12.15;6.47;;;;;;;23.02;62.56;100360.16;2094062;28;20032;-74
2022/08/14 02:19:52;;;;;;;9.50;6.28;;;;;;;23.03;62.61;100356.53;2101295;28;20064;-74
2022/08/14 02:21:17;;;;;;;10.20;6.07;;;;;;;23.03;62.69;100361.91;2102033;28;20036;-74
2022/08/14 02:22:41;;;;;;;9.52;6.63;;;;;;;23.04;62.89;100362.75;2097178;28;20044;-74
2022/08/14 02:24:07;;;;;;;9.98;6.47;;;;;;;23.00;62.95;100356.63;2095287;28;20131;-74
2022/08/14 02:25:29;;;;;;;9.75;6.55;;;;;;;23.02;63.01;100356.59;2091351;28;20094;-74
2022/08/14 02:26:52;;;;;;;9.48;5.90;;;;;;;23.01;63.05;100355.69;2101125;28;20043;-74
2022/08/14 02:28:14;;;;;;;9.32;5.85;;;;;;;23.02;63.01;100356.59;2109916;28;20044;-74
2022/08/14 02:29:37;;;;;;;11.57;6.65;;;;;;;22.99;63.00;100365.66;2103403;28;20059;-74
2022/08/14 02:30:59;;;;;;;9.80;5.93;;;;;;;22.95;63.30;100347.88;2096162;28;20107;-74
2022/08/14 02:32:22;;;;;;;8.48;6.18;;;;;;;22.95;63.33;100363.16;2090584;28;20041;-74
2022/08/14 02:33:45;;;;;;;9.15;7.05;;;;;;;22.93;63.46;100363.22;2099315;28;20048;-74
2022/08/14 02:35:16;;;;;;;16.02;6.22;;;;;;;22.93;63.52;100355.13;2100406;28;20068;-75
2022/08/14 02:36:39;;;;;;;8.70;5.78;;;;;;;22.91;63.53;100356.13;2095684;28;20049;-74
2022/08/14 02:38:03;;;;;;;9.27;5.53;;;;;;;22.90;63.67;100357.09;2098873;28;20450;-74
2022/08/14 02:39:25;;;;;;;10.50;6.47;;;;;;;22.82;63.83;100353.84;2102763;28;20052;-74
2022/08/14 02:40:48;;;;;;;14.05;6.30;;;;;;;22.73;63.96;100349.69;2097410;28;20037;-74
2022/08/14 02:42:15;;;;;;;8.23;6.05;;;;;;;22.68;64.48;100354.38;2100892;28;20143;-74
2022/08/14 02:43:38;;;;;;;11.70;6.55;;;;;;;22.69;64.52;100348.06;2096064;28;20052;-74
2022/08/14 02:45:01;;;;;;;10.23;6.03;;;;;;;22.72;64.53;100352.41;2105082;28;20046;-74
2022/08/14 02:46:23;;;;;;;10.38;6.63;;;;;;;22.77;64.40;100351.34;2107002;28;20074;-74
2022/08/14 02:47:44;;;;;;;10.38;6.07;;;;;;;22.82;64.36;100360.09;2105775;28;20052;-74
2022/08/14 02:49:07;;;;;;;10.40;6.22;;;;;;;22.86;64.14;100359.03;2101062;28;20036;-74
2022/08/14 02:50:28;;;;;;;12.15;6.57;;;;;;;22.90;64.06;100359.78;2094302;28;20048;-74
2022/08/14 02:51:51;;;;;;;8.90;5.90;;;;;;;22.91;64.21;100357.00;2098955;28;20048;-74
2022/08/14 02:53:15;;;;;;;11.18;6.38;;;;;;;22.94;64.32;100356.91;2094954;28;20127;-74
2022/08/14 02:54:38;;;;;;;10.90;6.13;;;;;;;22.95;64.48;100361.34;2100213;28;20514;-74
2022/08/14 02:56:01;;;;;;;9.93;6.30;;;;;;;22.97;64.49;100364.81;2103740;28;20495;-74
2022/08/14 02:57:24;;;;;;;8.95;5.90;;;;;;;22.98;64.43;100361.19;2094573;28;20055;-74
2022/08/14 02:58:49;;;;;;;10.02;6.25;;;;;;;22.99;64.32;100354.00;2099850;28;20056;-74
2022/08/14 03:00:12;;;;;;;9.45;6.22;;;;;;;22.98;64.63;100358.50;2097856;28;20041;-74
2022/08/14 03:01:36;;;;;;;12.27;6.32;;;;;;;23.00;64.55;100348.56;2094947;28;20044;-74
2022/08/14 03:02:57;;;;;;;9.98;6.47;;;;;;;23.02;64.55;100349.38;2095184;28;20064;-74
2022/08/14 03:04:20;;;;;;;12.55;6.70;;;;;;;23.01;64.40;100347.63;2102780;28;20723;-74
2022/08/14 03:05:42;;;;;;;9.73;5.68;;;;;;;22.99;64.44;100362.97;2101582;28;20047;-74
2022/08/14 03:07:05;;;;;;;9.88;6.20;;;;;;;22.94;64.50;100362.28;2105235;28;20501;-74
2022/08/14 03:08:32;;;;;;;10.85;6.20;;;;;;;22.89;64.70;100349.97;2094238;28;20036;-74
2022/08/14 03:09:55;;;;;;;10.02;5.88;;;;;;;22.86;64.79;100358.16;2101564;28;20085;-75
2022/08/14 03:11:17;;;;;;;10.52;6.53;;;;;;;22.80;64.98;100355.72;2086186;28;20154;-74
2022/08/14 03:12:41;;;;;;;14.43;6.75;;;;;;;22.72;65.34;100353.28;2090092;28;20133;-74
2022/08/14 03:14:03;;;;;;;9.73;5.85;;;;;;;22.66;65.52;100350.84;2108142;28;20054;-75
2022/08/14 03:15:25;;;;;;;9.07;5.93;;;;;;;22.66;65.77;100350.84;2106024;28;20059;-74
2022/08/14 03:16:49;;;;;;;16.05;6.70;;;;;;;22.69;65.71;100347.16;2094912;28;20071;-73
2022/08/14 03:18:11;;;;;;;9.63;6.32;;;;;;;22.72;65.97;100347.91;2094870;28;20089;-75
2022/08/14 03:19:34;;;;;;;9.10;6.75;;;;;;;22.77;65.87;100350.47;2103474;28;20113;-74
2022/08/14 03:20:55;;;;;;;11.75;6.38;;;;;;;22.79;65.81;100348.56;2094588;28;20197;-74
2022/08/14 03:22:18;;;;;;;10.15;6.47;;;;;;;22.82;65.90;100354.72;2100211;28;20072;-74
2022/08/14 03:23:45;;;;;;;11.82;5.75;;;;;;;22.85;65.60;100351.88;2094058;28;20102;-74
2022/08/14 03:25:07;;;;;;;11.65;6.40;;;;;;;22.82;65.49;100353.84;2118288;27;20099;-74
2022/08/14 03:26:32;;;;;;;11.50;7.13;;;;;;;22.81;65.36;100355.66;2107818;28;20545;-75
2022/08/14 03:27:53;;;;;;;11.13;6.38;;;;;;;22.83;65.44;100355.59;2102048;28;20157;-74
2022/08/14 03:29:19;;;;;;;9.23;5.88;;;;;;;22.83;65.35;100364.56;2097168;28;20110;-74
2022/08/14 03:30:42;;;;;;;9.25;6.43;;;;;;;22.82;65.16;100362.78;2099645;28;20051;-74
2022/08/14 03:32:05;;;;;;;10.18;6.43;;;;;;;22.82;65.22;100360.09;2105433;28;20431;-74
2022/08/14 03:33:28;;;;;;;8.70;5.93;;;;;;;22.83;65.26;100359.16;2094843;28;20132;-75
2022/08/14 03:34:51;;;;;;;13.10;6.10;;;;;;;22.86;65.17;100371.59;2094447;28;20477;-74
2022/08/14 03:36:15;;;;;;;10.10;6.05;;;;;;;22.87;65.11;100365.28;2096807;28;20067;-74
2022/08/14 03:37:37;;;;;;;10.23;6.90;;;;;;;22.86;65.09;100369.78;2106621;28;20495;-74
2022/08/14 03:39:02;;;;;;;11.55;6.10;;;;;;;22.84;64.99;100358.19;2105263;28;20581;-74
2022/08/14 03:40:25;;;;;;;11.10;6.75;;;;;;;22.86;64.85;100363.53;2118565;27;20035;-74
2022/08/14 03:41:48;;;;;;;14.60;6.55;;;;;;;22.81;64.97;100362.84;2107925;28;20503;-74
2022/08/14 03:43:11;;;;;;;10.90;6.22;;;;;;;22.77;65.33;100358.53;2100669;28;20040;-74
2022/08/14 03:44:34;;;;;;;11.15;7.00;;;;;;;22.77;65.45;100354.03;2104020;28;20052;-74
2022/08/14 03:45:56;;;;;;;9.40;6.28;;;;;;;22.79;65.59;100357.53;2102816;28;20139;-74
2022/08/14 03:47:18;;;;;;;9.13;6.50;;;;;;;22.80;65.67;100361.97;2104241;28;20131;-75
2022/08/14 03:48:41;;;;;;;10.02;6.30;;;;;;;22.82;65.67;100357.41;2100384;28;20056;-74
2022/08/14 03:50:06;;;;;;;11.98;7.28;;;;;;;22.82;65.63;100359.22;2094739;28;20041;-74
2022/08/14 03:51:27;;;;;;;10.60;6.97;;;;;;;22.81;65.71;100355.66;2103572;28;20051;-74
2022/08/14 03:52:50;;;;;;;11.35;6.05;;;;;;;22.79;65.72;100354.81;2096162;28;20440;-74
2022/08/14 03:54:13;;;;;;;9.80;6.65;;;;;;;22.82;65.78;100356.53;2111669;27;20166;-74
2022/08/14 03:55:35;;;;;;;10.38;6.18;;;;;;;22.81;65.85;100357.47;2097520;28;20187;-74
2022/08/14 03:56:59;;;;;;;9.40;6.20;;;;;;;22.80;65.78;100353.91;2098345;28;20524;-74
2022/08/14 03:58:22;;;;;;;8.50;5.70;;;;;;;22.80;65.96;100361.09;2103095;28;20048;-74
2022/08/14 03:59:43;;;;;;;15.27;6.65;;;;;;;22.81;66.21;100361.03;2102759;28;20048;-74
2022/08/14 04:01:06;;;;;;;9.48;5.85;;;;;;;22.88;66.36;100357.16;2104102;28;20105;-74
2022/08/14 04:02:28;;;;;;;10.52;6.30;;;;;;;22.96;66.33;100359.53;2093175;28;20040;-74
2022/08/14 04:03:53;;;;;;;8.10;5.72;;;;;;;23.04;66.43;100352.88;2098840;28;20135;-74
2022/08/14 04:05:16;;;;;;;15.00;7.25;;;;;;;23.13;66.50;100342.66;2120207;27;20039;-74
2022/08/14 04:06:39;;;;;;;10.43;6.25;;;;;;;23.21;66.48;100352.16;2105854;28;20126;-74
2022/08/14 04:08:02;;;;;;;9.93;6.47;;;;;;;23.32;66.39;100351.69;2102699;28;20056;-74
2022/08/14 04:09:25;;;;;;;11.70;5.25;;;;;;;23.42;65.96;100347.66;2086443;28;20137;-74
2022/08/14 04:10:47;;;;;;;9.25;5.97;;;;;;;23.56;65.96;100363.25;2108560;28;20036;-74
2022/08/14 04:12:09;;;;;;;11.70;6.10;;;;;;;23.67;65.83;100360.97;2091470;28;20053;-74
2022/08/14 04:13:33;;;;;;;10.65;5.90;;;;;;;23.76;65.50;100357.88;2099513;28;20504;-75
2022/08/14 04:14:54;;;;;;;11.43;6.40;;;;;;;23.88;65.42;100360.00;2110499;28;20039;-74
2022/08/14 04:16:21;;;;;;;9.13;5.47;;;;;;;24.01;65.20;100357.59;2095815;28;20187;-74
2022/08/14 04:17:42;;;;;;;9.40;5.90;;;;;;;24.12;64.83;100355.28;2102947;28;20119;-74
2022/08/14 04:19:07;;;;;;;11.73;5.68;;;;;;;24.20;64.42;100348.63;2105338;28;20051;-74
2022/08/14 04:20:28;;;;;;;10.50;5.55;;;;;;;24.30;64.11;100354.44;2103239;28;20043;-74
2022/08/14 04:21:51;;;;;;;7.97;5.05;;;;;;;24.40;64.10;100353.06;2102078;28;20473;-74
2022/08/14 04:23:12;;;;;;;10.55;5.13;;;;;;;24.52;63.89;100355.19;2098963;28;20055;-74
2022/08/14 04:24:37;;;;;;;8.27;5.53;;;;;;;24.63;63.66;100351.94;2105194;28;20052;-74
2022/08/14 04:25:59;;;;;;;8.88;5.07;;;;;;;24.75;63.30;100347.75;2097199;28;20048;-74
2022/08/14 04:27:22;;;;;;;10.23;5.50;;;;;;;24.89;63.32;100353.34;2100778;28;20071;-74
2022/08/14 04:28:44;;;;;;;8.80;4.63;;;;;;;25.01;63.10;100363.56;2102806;28;20040;-74
2022/08/14 04:30:07;;;;;;;7.35;4.18;;;;;;;25.12;62.69;100349.53;2101927;28;20484;-74
2022/08/14 04:31:29;;;;;;;8.45;5.40;;;;;;;25.24;62.65;100347.09;2104285;28;20407;-74
2022/08/14 04:32:52;;;;;;;6.90;4.47;;;;;;;25.38;62.30;100347.25;2093309;28;20048;-74
2022/08/14 04:34:15;;;;;;;7.93;4.10;;;;;;;25.53;61.94;100352.81;2100348;28;20492;-74
2022/08/14 04:35:38;;;;;;;8.63;4.65;;;;;;;25.67;61.77;100353.84;2092402;28;20049;-74
2022/08/14 04:43:41;;;;;;;8.82;4.35;;;;;;;26.40;60.76;100346.25;2102711;28;20052;-74
2022/08/14 04:45:02;;;;;;;6.30;4.07;;;;;;;26.54;60.07;100351.78;2102039;28;20699;-74
2022/08/14 04:46:27;;;;;;;9.02;3.83;;;;;;;26.65;59.77;100349.31;2097087;28;20090;-74
2022/08/14 04:49:29;;;;;;;8.32;4.30;;;;;;;26.95;59.15;100354.84;2095853;28;20048;-74
2022/08/14 04:50:52;;;;;;;6.68;3.75;;;;;;;27.13;58.85;100350.16;2099845;28;20098;-74
2022/08/14 04:52:13;;;;;;;7.57;3.65;;;;;;;27.25;58.49;100341.28;2099513;28;20071;-74
2022/08/14 04:53:39;;;;;;;6.88;3.60;;;;;;;27.42;58.22;100345.72;2099739;28;20043;-74
2022/08/14 04:55:03;;;;;;;7.72;3.60;;;;;;;27.60;57.90;100344.63;2101876;28;20086;-74
2022/08/14 04:56:28;;;;;;;6.40;3.95;;;;;;;27.77;57.46;100328.16;2102599;28;20079;-74
2022/08/14 04:57:49;;;;;;;10.05;3.90;;;;;;;27.93;57.01;100334.38;2102165;28;20452;-74
2022/08/14 04:59:12;;;;;;;8.60;3.92;;;;;;;28.05;56.44;100328.16;2099149;28;20113;-74
2022/08/14 05:00:34;;;;;;;8.00;3.83;;;;;;;28.21;56.06;100330.81;2107715;28;20086;-74
2022/08/14 05:01:57;;;;;;;8.15;4.80;;;;;;;28.33;55.56;100327.31;2096270;28;20048;-74
2022/08/14 05:03:20;;;;;;;5.85;3.92;;;;;;;28.48;55.54;100328.16;2089858;28;20512;-74
2022/08/14 05:04:43;;;;;;;7.97;3.88;;;;;;;28.66;55.20;100334.22;2097433;28;20103;-74
2022/08/14 05:06:06;;;;;;;6.68;3.75;;;;;;;28.85;54.92;100326.63;2093256;28;20055;-74
2022/08/14 05:07:30;;;;;;;8.45;3.60;;;;;;;29.04;54.53;100329.84;2097296;28;20075;-74
2022/08/14 05:08:53;;;;;;;10.07;4.10;;;;;;;29.20;53.90;100333.28;2090862;28;20393;-74
2022/08/14 05:10:14;;;;;;;8.57;3.92;;;;;;;29.35;53.72;100333.19;2091410;28;20053;-74
2022/08/14 05:11:38;;;;;;;8.52;3.60;;;;;;;29.48;53.45;100332.25;2102224;28;20519;-74
2022/08/14 05:12:59;;;;;;;8.50;3.53;;;;;;;29.66;53.04;100335.56;2107507;28;20407;-74
2022/08/14 05:14:22;;;;;;;7.07;3.13;;;;;;;29.80;52.66;100332.69;2092910;28;20094;-74
2022/08/14 05:15:45;;;;;;;9.20;3.95;;;;;;;29.98;52.26;100331.44;2096667;28;20043;-74
2022/08/14 05:17:07;;;;;;;5.95;3.35;;;;;;;30.17;51.93;100330.97;2095265;28;20603;-74
2022/08/14 05:18:32;;;;;;;6.00;3.30;;;;;;;30.33;50.81;100334.31;2111340;27;20055;-74
2022/08/14 05:19:54;;;;;;;8.27;3.22;;;;;;;30.51;49.85;100334.88;2106953;28;20048;-74
2022/08/14 05:21:17;;;;;;;7.00;3.47;;;;;;;30.67;49.58;100334.56;2116799;27;20095;-74
2022/08/14 05:22:38;;;;;;;6.18;3.28;;;;;;;30.84;48.90;100335.06;2105352;28;20057;-75
2022/08/14 05:24:01;;;;;;;6.60;3.10;;;;;;;30.97;47.88;100331.41;2100043;28;20047;-74
2022/08/14 05:25:22;;;;;;;5.45;3.08;;;;;;;31.08;47.09;100339.66;2104674;28;20045;-74
2022/08/14 05:26:46;;;;;;;4.97;3.00;;;;;;;31.15;46.71;100330.03;2095746;28;20067;-74
2022/08/14 05:28:09;;;;;;;7.15;2.80;;;;;;;31.28;46.77;100341.75;2083345;28;20048;-74
2022/08/14 05:29:33;;;;;;;4.82;2.78;;;;;;;31.47;45.99;100343.91;2096516;28;20044;-74
2022/08/14 05:30:58;;;;;;;5.30;2.60;;;;;;;31.66;45.40;100336.91;2096398;28;20493;-74
2022/08/14 05:32:20;;;;;;;5.22;2.65;;;;;;;31.86;44.67;100332.59;2096294;28;20109;-74
2022/08/14 05:33:43;;;;;;;5.10;3.15;;;;;;;32.04;43.98;100336.59;2097872;28;21769;-74
2022/08/14 05:35:06;;;;;;;5.03;2.53;;;;;;;32.20;43.42;100330.78;2101262;28;20071;-74
2022/08/14 05:36:29;;;;;;;4.22;2.47;;;;;;;32.37;43.03;100327.53;2103608;28;20119;-74
2022/08/14 05:37:52;;;;;;;4.60;2.47;;;;;;;32.52;42.74;100332.75;2094949;28;20880;-75
2022/08/14 05:39:14;;;;;;;4.75;2.40;;;;;;;32.68;42.02;100336.00;2098206;28;20051;-74
2022/08/14 05:40:37;;;;;;;5.60;2.88;;;;;;;32.79;41.38;100333.22;2090710;28;20702;-75
2022/08/14 05:42:00;;;;;;;3.78;2.40;;;;;;;32.92;41.15;100330.31;2091135;28;20048;-75
2022/08/14 05:43:23;;;;;;;5.82;2.85;;;;;;;32.97;41.00;100326.19;2100400;28;20050;-75
2022/08/14 05:44:44;;;;;;;4.60;2.70;;;;;;;33.11;40.61;100327.75;2101746;28;20035;-74
2022/08/14 05:46:10;;;;;;;7.18;3.42;;;;;;;33.26;40.34;100331.09;2092676;28;20596;-75
2022/08/14 05:47:37;;;;;;;7.13;2.80;;;;;;;33.43;40.13;100333.22;2109041;27;20507;-74
2022/08/14 05:49:00;;;;;;;3.42;2.58;;;;;;;33.56;39.74;100329.28;2092452;28;20068;-74
2022/08/14 05:50:23;;;;;;;3.45;2.50;;;;;;;33.70;39.42;100330.84;2098512;28;20615;-74
2022/08/14 05:51:46;;;;;;;5.63;2.58;;;;;;;33.86;39.08;100330.38;2114930;27;20050;-74
2022/08/14 05:53:08;;;;;;;5.18;2.45;;;;;;;34.01;38.75;100327.13;2104327;27;20093;-75
2022/08/14 05:54:31;;;;;;;5.80;2.97;;;;;;;34.20;38.48;100328.25;2090049;28;20041;-75
2022/08/14 05:55:54;;;;;;;5.40;2.20;;;;;;;34.35;38.35;100330.50;2090674;28;20041;-75
2022/08/14 05:57:18;;;;;;;3.53;2.20;;;;;;;34.49;37.80;100339.34;2098025;28;20047;-76
2022/08/14 05:58:40;;;;;;;5.25;2.22;;;;;;;34.60;37.05;100334.59;2091916;28;20039;-76
2022/08/14 06:00:03;;;;;;;4.53;2.50;;;;;;;34.67;36.60;100332.16;2096878;28;20482;-76
2022/08/14 06:01:26;;;;;;;3.78;2.22;;;;;;;34.66;36.21;100333.16;2098108;28;20057;-75
2022/08/14 06:02:48;;;;;;;2.95;2.38;;;;;;;34.65;36.12;100335.06;2108326;28;20051;-76
2022/08/14 06:04:10;;;;;;;4.57;2.55;;;;;;;34.71;36.33;100334.53;2094085;28;20055;-76
2022/08/14 06:05:31;;;;;;;4.45;2.22;;;;;;;34.81;35.89;100333.66;2100809;28;20048;-75
2022/08/14 06:06:54;;;;;;;3.78;2.22;;;;;;;34.80;35.59;100330.06;2104620;28;20082;-75
2022/08/14 06:08:17;;;;;;;4.60;2.13;;;;;;;34.86;35.60;100336.84;2101485;28;20108;-74
2022/08/14 06:09:39;;;;;;;3.78;2.35;;;;;;;34.93;35.44;100338.03;2106021;27;20155;-74
2022/08/14 06:11:04;;;;;;;5.38;2.28;;;;;;;35.01;35.24;100329.94;2102247;28;20052;-74
2022/08/14 06:12:28;;;;;;;5.18;2.25;;;;;;;34.98;35.22;100336.59;2102075;28;20043;-75
2022/08/14 06:13:50;;;;;;;4.03;2.50;;;;;;;34.97;35.56;100344.97;2103848;28;20051;-74
2022/08/14 06:15:13;;;;;;;5.50;2.22;;;;;;;34.96;35.30;100340.50;2103262;28;20040;-74
2022/08/14 06:16:35;;;;;;;4.53;2.20;;;;;;;34.91;35.39;100331.81;2108681;28;20054;-75
2022/08/14 06:17:59;;;;;;;4.20;2.40;;;;;;;34.95;35.08;100333.25;2101724;28;20048;-74
2022/08/14 06:19:21;;;;;;;2.95;2.15;;;;;;;35.00;35.09;100333.69;2109646;28;20069;-75
2022/08/14 06:20:44;;;;;;;5.38;2.28;;;;;;;35.11;35.02;100334.44;2098053;28;20047;-74
2022/08/14 06:22:06;;;;;;;4.32;2.38;;;;;;;35.21;34.80;100334.47;2096947;28;20044;-75
2022/08/14 06:23:28;;;;;;;3.47;2.65;;;;;;;35.24;34.60;100336.94;2110307;28;20062;-75
2022/08/14 06:24:50;;;;;;;3.03;2.05;;;;;;;35.19;34.31;100320.84;2094761;28;20049;-74
2022/08/14 06:26:12;;;;;;;3.42;2.13;;;;;;;35.12;34.54;100335.28;2106677;28;20040;-74
2022/08/14 06:27:36;;;;;;;7.22;2.30;;;;;;;35.22;34.73;100336.22;2098940;28;20040;-74
2022/08/14 06:28:59;;;;;;;4.63;2.10;;;;;;;35.24;34.55;100325.09;2110573;28;20514;-75
2022/08/14 06:30:24;;;;;;;5.40;2.10;;;;;;;35.29;34.30;100323.63;2098530;28;20048;-74
2022/08/14 06:31:47;;;;;;;4.07;2.15;;;;;;;35.22;34.31;100327.09;2101485;28;20113;-75
2022/08/14 06:33:08;;;;;;;3.03;2.10;;;;;;;35.18;34.76;100330.09;2102027;28;20056;-74
2022/08/14 06:34:31;;;;;;;3.40;2.00;;;;;;;35.28;34.50;100338.38;2092945;28;20103;-74
2022/08/14 06:35:54;;;;;;;3.63;2.15;;;;;;;35.35;34.44;100325.78;2092319;28;20036;-75